Time;durP1;ratioP1;P1;durP2;ratioP2;P2;SDS_P1;SDS_P2;PMS_P1;PMS_P2;Temp;Humidity;BMP_temperature;BMP_pressure;BME280_temperature;BME280_humidity;BME280_pressure;Samples;Min_cycle;Max_cycle;Signal;HPM_P1;HPM_P2
2022/05/03 00:00:04;;;;;;;;;;;12.90;99.90;;;;;;5087866;28;19916;-82
2022/05/03 00:02:48;;;;;;;;;;;12.90;99.90;;;;;;5085591;28;19927;-81
2022/05/03 00:05:39;;;;;;;;;;;12.80;99.90;;;;;;5077811;28;19935;-82
2022/05/03 00:08:08;;;;;;;;;;;12.80;99.90;;;;;;5069644;28;19913;-82
2022/05/03 00:10:54;;;;;;;;;;;12.70;99.90;;;;;;5080433;28;19927;-82
2022/05/03 00:13:21;;;;;;;;;;;12.60;99.90;;;;;;5071744;28;19934;-82
2022/05/03 00:15:48;;;;;;;;;;;12.50;99.90;;;;;;5090620;28;19913;-82
2022/05/03 00:18:14;;;;;;;;;;;12.50;99.90;;;;;;5065995;28;19917;-82
2022/05/03 00:20:40;;;;;;;;;;;12.40;99.90;;;;;;5086721;28;19939;-82
2022/05/03 00:23:07;;;;;;;;;;;12.40;99.90;;;;;;5089827;28;19979;-83
2022/05/03 00:25:32;;;;;;;;;;;12.20;99.90;;;;;;5080956;28;19920;-83
2022/05/03 00:27:58;;;;;;;;;;;12.10;99.90;;;;;;5076607;28;19912;-82
2022/05/03 00:30:24;;;;;;;;;;;11.90;99.90;;;;;;5091530;28;19913;-82
2022/05/03 00:32:54;;;;;;;;;;;11.70;99.90;;;;;;5097640;28;19919;-83
2022/05/03 00:35:21;;;;;;;;;;;11.70;99.90;;;;;;5074212;28;19937;-82
2022/05/03 00:37:47;;;;;;;;;;;11.70;99.90;;;;;;5093286;28;19912;-83
2022/05/03 00:40:14;;;;;;;;;;;11.80;99.90;;;;;;5087612;28;19916;-82
2022/05/03 00:42:55;;;;;;;;;;;11.80;99.90;;;;;;5073835;28;19916;-82
2022/05/03 00:45:30;;;;;;;;;;;11.80;99.90;;;;;;5090601;28;19931;-83
2022/05/03 00:48:03;;;;;;;;;;;11.80;99.90;;;;;;5078745;28;19913;-83
2022/05/03 00:50:33;;;;;;;;;;;11.80;99.90;;;;;;5098093;28;19920;-82
2022/05/03 00:53:15;;;;;;;;;;;11.80;99.90;;;;;;5079262;28;19995;-83
2022/05/03 00:55:40;;;;;;;;;;;11.80;99.90;;;;;;5074144;28;19912;-83
2022/05/03 00:58:09;;;;;;;;;;;11.80;99.90;;;;;;5088748;28;19942;-82
2022/05/03 01:00:38;;;;;;;;;;;11.80;99.90;;;;;;5091201;28;19920;-85
2022/05/03 01:03:04;;;;;;;;;;;11.80;99.90;;;;;;5090273;28;19919;-83
2022/05/03 01:05:44;;;;;;;;;;;11.80;99.90;;;;;;5071293;28;19917;-83
2022/05/03 01:08:12;;;;;;;;;;;11.80;99.90;;;;;;5071234;28;19919;-83
2022/05/03 01:10:42;;;;;;;;;;;11.80;99.90;;;;;;5083653;28;19927;-82
2022/05/03 01:13:13;;;;;;;;;;;11.80;99.90;;;;;;5077730;28;19920;-82
2022/05/03 01:15:42;;;;;;;;;;;11.80;99.90;;;;;;5078749;28;19914;-82
2022/05/03 01:18:07;;;;;;;;;;;11.80;99.90;;;;;;5069904;28;19920;-82
2022/05/03 01:20:50;;;;;;;;;;;11.70;99.90;;;;;;5073052;28;19966;-82
2022/05/03 01:23:21;;;;;;;;;;;11.70;99.90;;;;;;5110143;22;19974;-84
2022/05/03 01:26:06;;;;;;;;;;;11.70;99.90;;;;;;5071462;28;19919;-85
2022/05/03 01:28:43;;;;;;;;;;;11.70;99.90;;;;;;5072074;28;20360;-85
2022/05/03 01:31:10;;;;;;;;;;;11.70;99.90;;;;;;5072779;28;19912;-84
2022/05/03 01:33:42;;;;;;;;;;;11.60;99.90;;;;;;5091652;28;19919;-84
2022/05/03 01:36:08;;;;;;;;;;;11.60;99.90;;;;;;5092096;28;19919;-85
2022/05/03 01:38:52;;;;;;;;;;;11.60;99.90;;;;;;5096892;28;19920;-84
2022/05/03 01:41:26;;;;;;;;;;;11.60;99.90;;;;;;5077419;28;19920;-85
2022/05/03 01:44:00;;;;;;;;;;;11.50;99.90;;;;;;5093506;28;19919;-84
2022/05/03 01:46:30;;;;;;;;;;;11.50;99.90;;;;;;5096069;28;19920;-84
2022/05/03 01:51:46;;;;;;;;;;;11.50;99.90;;;;;;5097625;28;19927;-84
2022/05/03 01:54:31;;;;;;;;;;;11.40;99.90;;;;;;5095548;28;19975;-84
2022/05/03 01:57:05;;;;;;;;;;;11.40;99.90;;;;;;5094543;28;19912;-85
2022/05/03 01:59:42;;;;;;;;;;;11.40;99.90;;;;;;5083330;28;20355;-84
2022/05/03 02:02:29;;;;;;;;;;;11.40;99.90;;;;;;5091726;28;20010;-84
2022/05/03 02:05:05;;;;;;;;;;;11.40;99.90;;;;;;5076087;28;19912;-85
2022/05/03 02:07:36;;;;;;;;;;;11.30;99.90;;;;;;5095460;28;19962;-84
2022/05/03 02:10:06;;;;;;;;;;;11.30;99.90;;;;;;5096630;28;20122;-84
2022/05/03 02:12:32;;;;;;;;;;;11.20;99.90;;;;;;5091754;28;19943;-84
2022/05/03 02:15:09;;;;;;;;;;;11.20;99.90;;;;;;5092405;28;19913;-84
2022/05/03 02:17:43;;;;;;;;;;;11.20;99.90;;;;;;5097816;28;19916;-84
2022/05/03 02:20:09;;;;;;;;;;;11.10;99.90;;;;;;5077564;28;19942;-85
2022/05/03 02:22:46;;;;;;;;;;;11.10;99.90;;;;;;5073281;28;19941;-84
2022/05/03 02:25:12;;;;;;;;;;;11.00;99.90;;;;;;5093570;28;19912;-84
2022/05/03 02:27:40;;;;;;;;;;;11.00;99.90;;;;;;5094482;28;19920;-84
2022/05/03 02:30:06;;;;;;;;;;;10.90;99.90;;;;;;5078723;28;19920;-85
2022/05/03 02:32:41;;;;;;;;;;;10.90;99.90;;;;;;5091923;28;19994;-84
2022/05/03 02:35:09;;;;;;;;;;;10.90;99.90;;;;;;5089968;28;19913;-84
2022/05/03 02:37:36;;;;;;;;;;;10.90;99.90;;;;;;5092380;28;20003;-85
2022/05/03 02:40:02;;;;;;;;;;;10.80;99.90;;;;;;5095277;28;21262;-85
2022/05/03 02:42:28;;;;;;;;;;;10.80;99.90;;;;;;5076916;28;20018;-85
2022/05/03 02:44:55;;;;;;;;;;;10.70;99.90;;;;;;5077306;28;19919;-85
2022/05/03 02:47:29;;;;;;;;;;;10.70;99.90;;;;;;5091607;28;20006;-85
2022/05/03 02:50:03;;;;;;;;;;;10.70;99.90;;;;;;5095849;28;19966;-85
2022/05/03 02:52:35;;;;;;;;;;;10.70;99.90;;;;;;5092897;28;20012;-85
2022/05/03 02:55:06;;;;;;;;;;;10.70;99.90;;;;;;5076327;28;20045;-85
2022/05/03 02:57:50;;;;;;;;;;;10.70;99.90;;;;;;5093828;28;19912;-83
2022/05/03 03:03:20;;;;;;;;;;;10.60;99.90;;;;;;5095262;28;19942;-85
2022/05/03 03:05:49;;;;;;;;;;;10.60;99.90;;;;;;5091244;28;19979;-85
2022/05/03 03:08:19;;;;;;;;;;;10.60;99.90;;;;;;5093784;28;19912;-84
2022/05/03 03:11:13;;;;;;;;;;;10.50;99.90;;;;;;5095559;28;20444;-85
2022/05/03 03:13:48;;;;;;;;;;;10.50;99.90;;;;;;5005176;28;20363;-84
2022/05/03 03:16:14;;;;;;;;;;;10.50;99.90;;;;;;5091770;28;19912;-85
2022/05/03 03:18:43;;;;;;;;;;;10.50;99.90;;;;;;5094210;28;20269;-85
2022/05/03 03:21:11;;;;;;;;;;;10.50;99.90;;;;;;5095442;28;20020;-85
2022/05/03 03:23:41;;;;;;;;;;;10.40;99.90;;;;;;5092626;28;20388;-85
2022/05/03 03:26:08;;;;;;;;;;;10.40;99.90;;;;;;5092293;28;19913;-84
2022/05/03 03:28:35;;;;;;;;;;;10.40;99.90;;;;;;5090375;28;20360;-85
2022/05/03 03:31:02;;;;;;;;;;;10.40;99.90;;;;;;5095158;28;20009;-85
2022/05/03 03:33:31;;;;;;;;;;;10.40;99.90;;;;;;5075605;28;19928;-84
2022/05/03 03:35:56;;;;;;;;;;;10.30;99.90;;;;;;5095854;28;20408;-84
2022/05/03 03:38:28;;;;;;;;;;;10.30;99.90;;;;;;5091772;28;19936;-85
2022/05/03 03:40:53;;;;;;;;;;;10.30;99.90;;;;;;5067955;28;19919;-85
2022/05/03 03:43:18;;;;;;;;;;;10.20;99.90;;;;;;5094242;28;20276;-85
2022/05/03 03:45:44;;;;;;;;;;;10.20;99.90;;;;;;5074365;28;20260;-86
2022/05/03 03:48:10;;;;;;;;;;;10.20;99.90;;;;;;5091147;28;19916;-85
2022/05/03 03:50:37;;;;;;;;;;;10.20;99.90;;;;;;5071381;28;19985;-85
2022/05/03 03:53:03;;;;;;;;;;;10.20;99.90;;;;;;5094160;28;19928;-85
2022/05/03 03:55:29;;;;;;;;;;;10.10;99.90;;;;;;5092506;28;19912;-85
2022/05/03 03:57:55;;;;;;;;;;;10.10;99.90;;;;;;5075386;28;19919;-85
2022/05/03 04:00:20;;;;;;;;;;;10.10;99.90;;;;;;5068711;28;19916;-85
2022/05/03 04:02:46;;;;;;;;;;;10.00;99.90;;;;;;5093310;28;19961;-85
2022/05/03 04:05:15;;;;;;;;;;;10.00;99.90;;;;;;5079626;28;19921;-85
2022/05/03 04:07:41;;;;;;;;;;;10.00;99.90;;;;;;5075738;28;20380;-84
2022/05/03 04:10:06;;;;;;;;;;;10.00;99.90;;;;;;5076843;28;19950;-84
2022/05/03 04:12:32;;;;;;;;;;;10.00;99.90;;;;;;5091994;28;19954;-85
2022/05/03 04:14:57;;;;;;;;;;;10.00;99.90;;;;;;5096849;28;19920;-85
2022/05/03 04:17:23;;;;;;;;;;;10.00;99.90;;;;;;5088154;28;19940;-85
2022/05/03 04:19:48;;;;;;;;;;;10.00;99.90;;;;;;5093478;28;19924;-85
2022/05/03 04:22:23;;;;;;;;;;;10.00;99.90;;;;;;5089145;28;19938;-85
2022/05/03 04:24:48;;;;;;;;;;;10.00;99.90;;;;;;5094949;28;20780;-85
2022/05/03 04:27:15;;;;;;;;;;;10.00;99.90;;;;;;5094324;28;19908;-85
2022/05/03 04:29:40;;;;;;;;;;;10.00;99.90;;;;;;5094360;28;19930;-84
2022/05/03 04:32:06;;;;;;;;;;;10.00;99.90;;;;;;5094351;28;19956;-85
2022/05/03 04:34:31;;;;;;;;;;;10.00;99.90;;;;;;5092322;28;20828;-85
2022/05/03 04:36:57;;;;;;;;;;;10.10;99.90;;;;;;5094272;28;19912;-85
2022/05/03 04:39:23;;;;;;;;;;;10.10;99.90;;;;;;5093578;28;19959;-85
2022/05/03 04:41:48;;;;;;;;;;;10.10;99.90;;;;;;5100132;28;19909;-86
2022/05/03 04:44:14;;;;;;;;;;;10.20;99.90;;;;;;5107469;28;19913;-86
2022/05/03 04:46:39;;;;;;;;;;;10.20;99.90;;;;;;5111070;27;19916;-85
2022/05/03 04:49:05;;;;;;;;;;;10.20;99.90;;;;;;5094673;28;19950;-85
2022/05/03 04:51:31;;;;;;;;;;;10.30;99.90;;;;;;5094553;28;19916;-85
2022/05/03 04:53:56;;;;;;;;;;;10.40;99.90;;;;;;5093954;28;19920;-85
2022/05/03 04:56:22;;;;;;;;;;;10.50;99.90;;;;;;5092081;28;19915;-85
2022/05/03 04:58:48;;;;;;;;;;;10.50;99.90;;;;;;5093130;28;19912;-85
2022/05/03 05:01:14;;;;;;;;;;;10.60;99.90;;;;;;5094128;28;19956;-85
2022/05/03 05:03:40;;;;;;;;;;;10.70;99.90;;;;;;5074850;28;20474;-84
2022/05/03 05:06:05;;;;;;;;;;;10.70;99.90;;;;;;5094844;28;19908;-85
2022/05/03 05:08:31;;;;;;;;;;;10.80;99.90;;;;;;5070151;28;19916;-85
2022/05/03 05:10:56;;;;;;;;;;;10.90;99.90;;;;;;5096398;28;19923;-85
2022/05/03 05:13:22;;;;;;;;;;;11.00;99.90;;;;;;5075419;28;20352;-85
2022/05/03 05:15:49;;;;;;;;;;;11.10;99.90;;;;;;5078637;28;19912;-85
2022/05/03 05:18:16;;;;;;;;;;;11.30;99.90;;;;;;5091228;28;20373;-84
2022/05/03 05:20:41;;;;;;;;;;;11.40;99.90;;;;;;5096209;28;19912;-84
2022/05/03 05:23:07;;;;;;;;;;;11.50;99.90;;;;;;5078835;28;20294;-85
2022/05/03 05:25:32;;;;;;;;;;;11.70;99.90;;;;;;5097371;28;19967;-85
2022/05/03 05:27:57;;;;;;;;;;;12.10;99.90;;;;;;5093941;28;20458;-85
2022/05/03 05:30:23;;;;;;;;;;;12.70;99.90;;;;;;5092823;28;19919;-85
2022/05/03 05:32:48;;;;;;;;;;;14.00;99.90;;;;;;5093375;28;19912;-85
2022/05/03 05:35:14;;;;;;;;;;;15.90;99.90;;;;;;5075481;28;19950;-86
2022/05/03 05:37:40;;;;;;;;;;;17.60;99.90;;;;;;5097355;28;20462;-86
2022/05/03 05:40:05;;;;;;;;;;;19.20;99.90;;;;;;5091852;28;19912;-87
2022/05/03 05:42:31;;;;;;;;;;;20.70;99.90;;;;;;5095599;28;19916;-86
2022/05/03 05:44:57;;;;;;;;;;;22.00;99.90;;;;;;5074340;28;19916;-86
2022/05/03 05:47:23;;;;;;;;;;;23.00;99.90;;;;;;5091185;28;19999;-87
2022/05/03 05:49:49;;;;;;;;;;;23.80;99.90;;;;;;5093251;28;20392;-86
2022/05/03 05:54:59;;;;;;;;;;;25.40;99.90;;;;;;5091005;28;20387;-86
2022/05/03 05:57:24;;;;;;;;;;;26.20;99.90;;;;;;5091284;28;19913;-86
2022/05/03 05:59:50;;;;;;;;;;;27.20;99.90;;;;;;5092533;28;20561;-87
2022/05/03 06:02:15;;;;;;;;;;;28.20;99.90;;;;;;5073219;28;20422;-87
2022/05/03 06:04:41;;;;;;;;;;;29.10;99.90;;;;;;5089715;28;19926;-87
2022/05/03 06:07:06;;;;;;;;;;;30.00;99.90;;;;;;5093692;28;20292;-86
2022/05/03 06:09:33;;;;;;;;;;;31.10;99.90;;;;;;5088177;28;19959;-86
2022/05/03 06:11:58;;;;;;;;;;;32.20;99.90;;;;;;5092633;28;19924;-87
2022/05/03 06:14:24;;;;;;;;;;;33.10;99.90;;;;;;5091095;28;19912;-88
2022/05/03 06:16:50;;;;;;;;;;;34.00;99.90;;;;;;5086637;28;19963;-87
2022/05/03 06:19:16;;;;;;;;;;;34.60;99.90;;;;;;5071052;28;19919;-87
2022/05/03 06:21:41;;;;;;;;;;;34.30;99.90;;;;;;5094866;28;19920;-87
2022/05/03 06:24:07;;;;;;;;;;;34.30;99.90;;;;;;5087926;28;19920;-87
2022/05/03 06:26:32;;;;;;;;;;;34.50;99.90;;;;;;5090767;28;19912;-86
2022/05/03 06:28:59;;;;;;;;;;;34.50;99.90;;;;;;5074916;28;19962;-87
2022/05/03 06:31:24;;;;;;;;;;;34.80;99.90;;;;;;5095959;28;19909;-87
2022/05/03 06:33:50;;;;;;;;;;;35.20;99.90;;;;;;5094397;28;19923;-86
2022/05/03 06:36:16;;;;;;;;;;;35.70;99.90;;;;;;5088983;28;19912;-87
2022/05/03 06:38:41;;;;;;;;;;;35.90;99.90;;;;;;5092498;28;19912;-88
2022/05/03 06:41:08;;;;;;;;;;;36.10;99.90;;;;;;5093058;28;19926;-86
2022/05/03 06:43:34;;;;;;;;;;;36.20;99.90;;;;;;5094832;28;19991;-87
2022/05/03 06:45:59;;;;;;;;;;;36.60;99.90;;;;;;5075687;28;19952;-88
2022/05/03 06:48:25;;;;;;;;;;;37.20;99.90;;;;;;5077086;28;19915;-86
2022/05/03 06:50:50;;;;;;;;;;;37.70;99.90;;;;;;5094574;28;19995;-86
2022/05/03 06:53:16;;;;;;;;;;;38.20;99.90;;;;;;5067310;28;20007;-84
2022/05/03 06:55:41;;;;;;;;;;;38.60;99.90;;;;;;5088927;28;20006;-84
2022/05/03 06:58:07;;;;;;;;;;;38.90;99.90;;;;;;5070030;28;19912;-84
2022/05/03 07:00:32;;;;;;;;;;;39.10;99.90;;;;;;5090366;28;19923;-84
2022/05/03 07:02:58;;;;;;;;;;;39.30;99.90;;;;;;5067927;28;19951;-85
2022/05/03 07:05:23;;;;;;;;;;;39.90;99.90;;;;;;5075651;28;19916;-86
2022/05/03 07:07:49;;;;;;;;;;;40.60;99.90;;;;;;5074227;28;19916;-85
2022/05/03 07:10:14;;;;;;;;;;;41.10;99.90;;;;;;5090991;28;19923;-86
2022/05/03 07:12:39;;;;;;;;;;;41.70;99.90;;;;;;5087195;28;20042;-87
2022/05/03 07:15:05;;;;;;;;;;;42.00;99.90;;;;;;5090724;28;20015;-85
2022/05/03 07:23:00;;;;;;;;;;;42.10;99.90;;;;;;5087701;28;19977;-86
2022/05/03 07:25:28;;;;;;;;;;;42.10;99.90;;;;;;5091321;22;20027;-81
2022/05/03 07:27:53;;;;;;;;;;;42.00;99.90;;;;;;5046458;28;19952;-82
2022/05/03 07:30:21;;;;;;;;;;;41.90;99.90;;;;;;5044843;28;19917;-82
2022/05/03 07:32:49;;;;;;;;;;;42.30;99.90;;;;;;5048155;28;19909;-83
2022/05/03 07:35:15;;;;;;;;;;;42.60;99.90;;;;;;5049894;28;19912;-82
2022/05/03 07:37:41;;;;;;;;;;;42.60;99.90;;;;;;5048442;28;20399;-83
2022/05/03 07:40:08;;;;;;;;;;;42.30;99.90;;;;;;5075281;28;19917;-82
2022/05/03 07:42:33;;;;;;;;;;;42.10;99.90;;;;;;5062207;28;19917;-83
2022/05/03 07:44:59;;;;;;;;;;;42.60;99.90;;;;;;5032921;28;19939;-83
2022/05/03 07:47:24;;;;;;;;;;;42.80;99.90;;;;;;5054087;28;19909;-82
2022/05/03 07:49:50;;;;;;;;;;;42.90;99.90;;;;;;5053219;28;19994;-82
2022/05/03 07:52:17;;;;;;;;;;;43.20;99.90;;;;;;5055846;28;21459;-82
2022/05/03 07:54:43;;;;;;;;;;;43.80;99.90;;;;;;5056884;28;20345;-82
2022/05/03 07:57:09;;;;;;;;;;;44.00;99.90;;;;;;5056290;28;19913;-83
2022/05/03 07:59:34;;;;;;;;;;;44.50;99.90;;;;;;5056913;28;19952;-82
2022/05/03 08:02:00;;;;;;;;;;;44.80;99.90;;;;;;5037394;28;19921;-82
2022/05/03 08:04:26;;;;;;;;;;;44.70;99.90;;;;;;5053619;28;19973;-82
2022/05/03 08:06:51;;;;;;;;;;;44.70;99.90;;;;;;5036119;28;20411;-82
2022/05/03 08:09:17;;;;;;;;;;;43.80;99.90;;;;;;5063230;28;19948;-80
2022/05/03 08:11:42;;;;;;;;;;;43.30;99.90;;;;;;5059125;28;19923;-81
2022/05/03 08:14:08;;;;;;;;;;;43.40;99.90;;;;;;5037210;28;19916;-81
2022/05/03 08:16:34;;;;;;;;;;;43.40;99.90;;;;;;5038568;28;20015;-82
2022/05/03 08:19:00;;;;;;;;;;;43.30;99.90;;;;;;5054556;28;19949;-82
2022/05/03 08:21:25;;;;;;;;;;;43.90;99.90;;;;;;5038718;28;19935;-81
2022/05/03 08:23:51;;;;;;;;;;;44.00;99.90;;;;;;5055084;28;19963;-81
2022/05/03 08:26:17;;;;;;;;;;;44.10;99.90;;;;;;5034908;28;20372;-81
2022/05/03 08:28:43;;;;;;;;;;;44.00;99.90;;;;;;5056972;28;19913;-82
2022/05/03 08:31:09;;;;;;;;;;;43.30;99.90;;;;;;5057835;28;19944;-82
2022/05/03 08:33:34;;;;;;;;;;;43.60;99.90;;;;;;5040474;28;19948;-80
2022/05/03 08:36:00;;;;;;;;;;;42.90;99.90;;;;;;5039371;28;19916;-81
2022/05/03 08:43:54;;;;;;;;;;;43.90;99.90;;;;;;5057841;28;19932;-81
2022/05/03 08:46:21;;;;;;;;;;;44.10;99.90;;;;;;5059936;28;19912;-81
2022/05/03 08:48:49;;;;;;;;;;;44.30;99.90;;;;;;5062275;28;20011;-81
2022/05/03 08:51:20;;;;;;;;;;;45.00;99.90;;;;;;5057784;28;19913;-81
2022/05/03 08:53:45;;;;;;;;;;;45.50;99.90;;;;;;5067195;28;19913;-81
2022/05/03 08:56:11;;;;;;;;;;;45.60;99.90;;;;;;5051934;28;19913;-82
2022/05/03 08:58:37;;;;;;;;;;;45.70;99.90;;;;;;5059128;28;19920;-81
2022/05/03 09:01:03;;;;;;;;;;;46.10;99.90;;;;;;5061979;28;19912;-81
2022/05/03 09:03:30;;;;;;;;;;;45.80;99.90;;;;;;5038664;28;19913;-82
2022/05/03 09:05:56;;;;;;;;;;;45.40;99.90;;;;;;5043573;28;19913;-82
2022/05/03 09:08:22;;;;;;;;;;;45.50;99.90;;;;;;5044378;28;20357;-82
2022/05/03 09:10:48;;;;;;;;;;;44.90;99.90;;;;;;5058644;28;19920;-82
2022/05/03 09:13:22;;;;;;;;;;;44.50;99.00;;;;;;5052021;28;19939;-81
2022/05/03 09:15:50;;;;;;;;;;;44.20;99.20;;;;;;5057582;28;19924;-81
2022/05/03 09:18:34;;;;;;;;;;;44.50;98.30;;;;;;5054160;28;19913;-81
2022/05/03 09:23:50;;;;;;;;;;;45.40;99.40;;;;;;5060669;28;20427;-81
2022/05/03 09:26:26;;;;;;;;;;;45.90;99.90;;;;;;5052782;28;20449;-81
2022/05/03 09:28:55;;;;;;;;;;;46.20;99.90;;;;;;5061065;28;19913;-82
2022/05/03 09:31:30;;;;;;;;;;;45.50;98.40;;;;;;5060876;28;19919;-81
2022/05/03 09:34:00;;;;;;;;;;;45.50;98.20;;;;;;5042783;28;19920;-81
2022/05/03 09:36:26;;;;;;;;;;;45.30;98.10;;;;;;5052657;28;19948;-82
2022/05/03 09:38:54;;;;;;;;;;;45.00;96.90;;;;;;5041017;28;19912;-79
2022/05/03 09:41:19;;;;;;;;;;;44.90;96.50;;;;;;5057626;28;19916;-80
2022/05/03 09:44:01;;;;;;;;;;;44.70;96.00;;;;;;5068886;28;20012;-80
2022/05/03 09:46:26;;;;;;;;;;;44.90;96.80;;;;;;5080069;28;19935;-80
2022/05/03 09:48:54;;;;;;;;;;;45.10;96.40;;;;;;5039309;28;19913;-80
2022/05/03 09:51:21;;;;;;;;;;;44.20;94.50;;;;;;5055464;28;19917;-80
2022/05/03 09:53:59;;;;;;;;;;;44.20;94.20;;;;;;5051841;28;19927;-81
2022/05/03 09:56:26;;;;;;;;;;;43.60;93.70;;;;;;5036267;28;19958;-80
2022/05/03 09:58:54;;;;;;;;;;;43.10;92.60;;;;;;5050708;28;19955;-81
2022/05/03 10:01:20;;;;;;;;;;;43.50;93.00;;;;;;5033763;28;19990;-80
2022/05/03 10:03:46;;;;;;;;;;;43.10;92.30;;;;;;5057910;28;19921;-81
2022/05/03 10:06:12;;;;;;;;;;;43.30;92.80;;;;;;5039700;28;19920;-80
2022/05/03 10:08:38;;;;;;;;;;;43.60;92.90;;;;;;5058056;28;20385;-81
2022/05/03 10:11:04;;;;;;;;;;;42.60;91.10;;;;;;5055483;28;19917;-81
2022/05/03 10:13:29;;;;;;;;;;;42.60;90.60;;;;;;5044127;28;19913;-81
2022/05/03 10:21:29;;;;;;;;;;;42.20;90.20;;;;;;5054097;28;19936;-81
2022/05/03 10:24:03;;;;;;;;;;;42.20;89.50;;;;;;5058355;28;19920;-81
2022/05/03 10:26:47;;;;;;;;;;;42.10;90.20;;;;;;5052552;28;19936;-81
2022/05/03 10:29:13;;;;;;;;;;;41.30;86.70;;;;;;5033282;28;19913;-81
2022/05/03 10:32:00;;;;;;;;;;;41.10;87.10;;;;;;5061061;28;19978;-81
2022/05/03 10:34:45;;;;;;;;;;;41.50;88.50;;;;;;5045652;28;19917;-81
2022/05/03 10:37:11;;;;;;;;;;;41.80;90.20;;;;;;5057907;28;19913;-81
2022/05/03 10:39:44;;;;;;;;;;;42.00;91.00;;;;;;5049561;28;19921;-81
2022/05/03 10:42:10;;;;;;;;;;;42.20;91.00;;;;;;5054936;28;20372;-81
2022/05/03 10:44:43;;;;;;;;;;;42.60;91.80;;;;;;5048191;28;19912;-81
2022/05/03 10:47:10;;;;;;;;;;;42.40;91.90;;;;;;5039897;28;19913;-80
2022/05/03 10:49:55;;;;;;;;;;;42.70;92.30;;;;;;5060430;28;19917;-82
2022/05/03 10:52:21;;;;;;;;;;;42.70;92.20;;;;;;5059033;28;19921;-83
2022/05/03 10:55:19;;;;;;;;;;;42.90;91.80;;;;;;5056114;28;19913;-80
2022/05/03 10:58:03;;;;;;;;;;;43.10;92.10;;;;;;5008962;28;19912;-81
2022/05/03 11:00:54;;;;;;;;;;;43.10;91.90;;;;;;5039691;28;19988;-81
2022/05/03 11:03:21;;;;;;;;;;;43.00;91.70;;;;;;5055996;28;19912;-81
2022/05/03 11:06:05;;;;;;;;;;;42.70;90.90;;;;;;5057284;28;19920;-81
2022/05/03 11:08:30;;;;;;;;;;;42.00;88.80;;;;;;5056103;28;19952;-81
2022/05/03 11:10:56;;;;;;;;;;;41.70;87.20;;;;;;5042579;28;19916;-82
2022/05/03 11:13:38;;;;;;;;;;;41.20;85.40;;;;;;5037196;28;19917;-82
2022/05/03 11:16:19;;;;;;;;;;;41.10;84.10;;;;;;5058375;28;19952;-81
2022/05/03 11:18:45;;;;;;;;;;;41.00;84.90;;;;;;5044398;28;19917;-81
2022/05/03 11:21:14;;;;;;;;;;;40.50;82.00;;;;;;5051528;28;19913;-80
2022/05/03 11:23:48;;;;;;;;;;;40.20;80.10;;;;;;5030570;28;19913;-81
2022/05/03 11:26:15;;;;;;;;;;;39.30;77.70;;;;;;5043324;28;19920;-80
2022/05/03 11:28:41;;;;;;;;;;;39.50;79.40;;;;;;5059391;28;19920;-79
2022/05/03 11:31:07;;;;;;;;;;;39.50;79.10;;;;;;5058385;28;19917;-81
2022/05/03 11:33:47;;;;;;;;;;;38.90;78.30;;;;;;5059119;28;19916;-80
2022/05/03 11:36:12;;;;;;;;;;;39.00;77.80;;;;;;5050902;28;19921;-80
2022/05/03 11:38:38;;;;;;;;;;;39.10;78.00;;;;;;5039724;28;19916;-80
2022/05/03 11:41:05;;;;;;;;;;;38.80;77.00;;;;;;5057777;28;19913;-80
2022/05/03 11:43:33;;;;;;;;;;;38.80;76.60;;;;;;5040333;28;19913;-80
2022/05/03 11:45:59;;;;;;;;;;;38.60;77.00;;;;;;5052254;28;19973;-80
2022/05/03 11:48:25;;;;;;;;;;;38.50;76.40;;;;;;5040904;28;19976;-80
2022/05/03 11:56:26;;;;;;;;;;;36.90;71.70;;;;;;5047693;28;20416;-79
2022/05/03 11:58:52;;;;;;;;;;;36.70;71.90;;;;;;5054745;28;19913;-81
2022/05/03 12:01:18;;;;;;;;;;;36.70;73.10;;;;;;5056659;28;19923;-80
2022/05/03 12:03:56;;;;;;;;;;;36.80;90.80;;;;;;5058088;28;19913;-80
2022/05/03 12:06:21;;;;;;;;;;;36.90;74.60;;;;;;5039741;28;19975;-80
2022/05/03 12:08:48;;;;;;;;;;;36.70;74.90;;;;;;5056181;28;19917;-80
2022/05/03 12:11:19;;;;;;;;;;;36.80;74.90;;;;;;5056921;28;19917;-81
2022/05/03 12:13:44;;;;;;;;;;;37.00;77.40;;;;;;5056758;28;19919;-79
2022/05/03 12:16:11;;;;;;;;;;;36.10;74.30;;;;;;5038998;28;19912;-80
2022/05/03 12:18:41;;;;;;;;;;;36.00;73.80;;;;;;5058465;28;19912;-80
2022/05/03 12:21:08;;;;;;;;;;;35.40;71.70;;;;;;5060885;28;19913;-80
2022/05/03 12:23:33;;;;;;;;;;;35.60;73.40;;;;;;5055766;28;19920;-80
2022/05/03 12:25:59;;;;;;;;;;;36.00;75.90;;;;;;5034474;28;19917;-80
2022/05/03 12:29:00;;;;;;;;;;;36.00;92.20;;;;;;5049612;28;20380;-80
2022/05/03 12:31:37;;;;;;;;;;;35.10;73.00;;;;;;4965902;28;19918;-80
2022/05/03 12:34:11;;;;;;;;;;;35.20;74.70;;;;;;5028606;28;19931;-80
2022/05/03 12:36:36;;;;;;;;;;;35.50;77.80;;;;;;5040782;28;19913;-80
2022/05/03 12:39:08;;;;;;;;;;;35.90;79.70;;;;;;5049424;28;19919;-81
2022/05/03 12:41:34;;;;;;;;;;;35.90;80.90;;;;;;5057157;28;20276;-80
2022/05/03 12:44:08;;;;;;;;;;;35.90;80.80;;;;;;5052853;28;19917;-80
2022/05/03 12:46:34;;;;;;;;;;;35.80;79.70;;;;;;5047616;28;19996;-80
2022/05/03 12:49:04;;;;;;;;;;;35.20;78.70;;;;;;5043776;28;19960;-80
2022/05/03 12:51:31;;;;;;;;;;;35.30;78.40;;;;;;5064710;28;19923;-81
2022/05/03 12:53:56;;;;;;;;;;;34.50;76.20;;;;;;5042314;28;19939;-80
2022/05/03 12:59:06;;;;;;;;;;;34.10;75.30;;;;;;5058241;28;19924;-81
2022/05/03 13:01:32;;;;;;;;;;;33.60;74.20;;;;;;5034234;28;19921;-81
2022/05/03 13:03:58;;;;;;;;;;;33.50;73.80;;;;;;5062051;28;19913;-81
2022/05/03 13:06:23;;;;;;;;;;;33.80;77.70;;;;;;5045590;28;19920;-82
2022/05/03 13:08:50;;;;;;;;;;;33.70;77.30;;;;;;5064268;28;19936;-81
2022/05/03 13:11:16;;;;;;;;;;;33.60;76.50;;;;;;5048606;28;19940;-81
2022/05/03 13:13:42;;;;;;;;;;;33.40;75.20;;;;;;5073353;28;19909;-81
2022/05/03 13:16:08;;;;;;;;;;;33.30;76.40;;;;;;5064369;28;19963;-80
2022/05/03 13:18:33;;;;;;;;;;;32.90;74.30;;;;;;5052776;28;19958;-80
2022/05/03 13:20:59;;;;;;;;;;;32.40;74.00;;;;;;5058022;28;21130;-81
2022/05/03 13:23:24;;;;;;;;;;;32.40;74.60;;;;;;5044282;28;20035;-80
2022/05/03 13:25:50;;;;;;;;;;;32.20;75.40;;;;;;5056132;28;19981;-81
2022/05/03 13:28:15;;;;;;;;;;;31.80;74.20;;;;;;5045299;28;20016;-81
2022/05/03 13:30:41;;;;;;;;;;;31.80;74.00;;;;;;5060538;28;20070;-80
2022/05/03 13:33:06;;;;;;;;;;;31.80;74.40;;;;;;5066943;28;20005;-81
2022/05/03 13:41:00;;;;;;;;;;;30.60;72.00;;;;;;5066317;28;20002;-81
2022/05/03 13:43:26;;;;;;;;;;;30.20;70.90;;;;;;5060051;28;19913;-81
2022/05/03 13:45:51;;;;;;;;;;;30.30;72.00;;;;;;5045226;28;19913;-81
2022/05/03 13:48:17;;;;;;;;;;;30.30;74.10;;;;;;5060561;28;19985;-81
2022/05/03 13:50:42;;;;;;;;;;;30.20;74.50;;;;;;5043536;28;19990;-81
2022/05/03 13:53:09;;;;;;;;;;;30.20;74.80;;;;;;5060888;28;19913;-81
2022/05/03 13:55:35;;;;;;;;;;;30.10;75.70;;;;;;5041471;28;19924;-81
2022/05/03 13:58:01;;;;;;;;;;;29.90;75.40;;;;;;5041492;28;19943;-81
2022/05/03 14:00:27;;;;;;;;;;;29.80;76.10;;;;;;5040979;28;20320;-81
2022/05/03 14:02:53;;;;;;;;;;;29.10;73.20;;;;;;5041881;28;19935;-81
2022/05/03 14:05:19;;;;;;;;;;;28.20;69.20;;;;;;5059613;28;19919;-80
2022/05/03 14:07:44;;;;;;;;;;;28.10;70.40;;;;;;5058964;28;19956;-80
2022/05/03 14:10:10;;;;;;;;;;;28.00;72.00;;;;;;5042502;28;19924;-81
2022/05/03 14:12:35;;;;;;;;;;;27.70;71.50;;;;;;5059224;28;19919;-82
2022/05/03 14:15:01;;;;;;;;;;;27.80;72.10;;;;;;5059093;28;19927;-81
2022/05/03 14:17:26;;;;;;;;;;;27.60;73.40;;;;;;5041538;28;20329;-81
2022/05/03 14:19:52;;;;;;;;;;;27.50;72.70;;;;;;5059862;28;19920;-81
2022/05/03 14:22:17;;;;;;;;;;;27.40;73.40;;;;;;5059688;28;19939;-81
2022/05/03 14:24:43;;;;;;;;;;;27.10;72.00;;;;;;5058092;28;19948;-81
2022/05/03 14:27:08;;;;;;;;;;;27.00;73.50;;;;;;5040885;28;20299;-81
2022/05/03 14:29:34;;;;;;;;;;;26.90;72.70;;;;;;5060405;28;19917;-81
2022/05/03 14:32:00;;;;;;;;;;;26.80;73.60;;;;;;5058475;28;20438;-81
2022/05/03 14:34:25;;;;;;;;;;;26.70;74.10;;;;;;5040395;28;19932;-81
2022/05/03 14:36:51;;;;;;;;;;;26.70;74.20;;;;;;5057564;28;19913;-80
2022/05/03 14:39:16;;;;;;;;;;;26.70;75.00;;;;;;5042828;28;19917;-80
2022/05/03 14:41:42;;;;;;;;;;;26.60;75.70;;;;;;5043819;28;20373;-79
2022/05/03 14:44:07;;;;;;;;;;;26.40;75.20;;;;;;5045682;28;19920;-79
2022/05/03 14:46:33;;;;;;;;;;;26.10;76.00;;;;;;5060434;28;19970;-80
2022/05/03 14:48:59;;;;;;;;;;;26.10;75.30;;;;;;5039894;28;19920;-80
2022/05/03 14:51:25;;;;;;;;;;;26.10;77.80;;;;;;5040904;28;20269;-80
2022/05/03 14:53:50;;;;;;;;;;;26.10;78.20;;;;;;5036725;28;20264;-79
2022/05/03 15:04:28;;;;;;;;;;;25.60;79.30;;;;;;5052559;28;19920;-80
2022/05/03 15:06:53;;;;;;;;;;;25.70;79.80;;;;;;5039258;28;19913;-82
2022/05/03 15:09:19;;;;;;;;;;;25.70;81.60;;;;;;5035982;28;19917;-81
2022/05/03 15:11:44;;;;;;;;;;;25.40;80.30;;;;;;5053913;28;20335;-81